RoSS Sea — WDE3122 — position and weather

sailwx.info

Track history (hours):
 
Tides and Currents Weather Stations Pressure Air Temp Water Temp Dewpoint Dewpoint Depression Visibility Wind Speed Wind Dir Waves Ship Positions

RoSS Sea

Owner: Kirby Inland Marine, LP, Houston, TX. More information available from US FCC via Universal Licensing System and Coast Guard Vessel Documentation Center.

Last reported at 2017-May-23 20:29 UTC. Time now 2017-May-23 20:51 UTC.
Position N 39°42' W 073°59'.

Length 30 m; draft 5 m.

Type: Towing. MMSI: 367334360.

Date/timePositionNaut miles runAvg speedWind from/ knotsBaromVisibWave heightAir tempDewpointWater temp
2017-May-23 20:29N 39°42' W 073°59'4 6.9
2017-May-23 19:58N 39°39' W 074°02'6 6.9
2017-May-23 19:10N 39°34' W 074°04'2 6.6
2017-May-23 18:53N 39°32' W 074°05'9 6.8
2017-May-23 17:36N 39°25' W 074°12'40 6.5
2017-May-23 11:26N 38°55' W 074°46'7 6.4
2017-May-23 10:17N 38°49' W 074°52'3 5.9
2017-May-23 09:49N 38°48' W 074°55'2 5.4
2017-May-23 09:30N 38°48' W 074°58'3 5.0
2017-May-23 08:54N 38°49' W 075°01'13 5.5
2017-May-23 06:37N 38°60' W 075°09'1 3.2
2017-May-23 06:20N 39°01' W 075°10'9 6.3
2017-May-23 04:56N 39°09' W 075°14'4 9.9
2017-May-23 04:30N 39°12' W 075°17'5 9.9
2017-May-23 04:00N 39°16' W 075°21'5 9.9
2017-May-23 03:30N 39°20' W 075°25'5 9.2
2017-May-23 03:00N 39°23' W 075°29'4 8.4
2017-May-23 02:30N 39°27' W 075°33'3 6.9
2017-May-23 02:00N 39°30' W 075°34'3 5.6
2017-May-23 01:30N 39°33' W 075°33'3 6.3
2017-May-23 01:00N 39°36' W 075°34'3 5.4
2017-May-23 00:30N 39°38' W 075°34'3 5.8
2017-May-23 00:01N 39°41' W 075°31'3 5.7
2017-May-22 23:30N 39°43' W 075°30'3 6.2
2017-May-22 23:01N 39°46' W 075°28'3 6.8
2017-May-22 22:31N 39°48' W 075°25'4 7.9
2017-May-22 22:00N 39°51' W 075°21'4 9.0
2017-May-22 21:30N 39°51' W 075°15'1 2.0
2017-May-22 21:01N 39°51' W 075°14'3 5.6
2017-May-22 20:30N 39°54' W 075°12'0 0.1
2017-May-22 20:01N 39°54' W 075°12'0 0.0
2017-May-22 19:30N 39°54' W 075°12'0 0.0
2017-May-22 19:00N 39°54' W 075°12'0 0.0
2017-May-22 18:30N 39°54' W 075°12'0 0.0
2017-May-22 18:00N 39°54' W 075°12'0 0.0
2017-May-22 17:30N 39°54' W 075°12'0 0.1
2017-May-22 17:00N 39°54' W 075°12'0 0.0
2017-May-22 16:30N 39°54' W 075°12'0 0.0
2017-May-22 16:00N 39°54' W 075°12'0 0.0
2017-May-22 15:30N 39°54' W 075°12'0 0.0
2017-May-22 15:00N 39°54' W 075°12'0 0.0
2017-May-22 14:00N 39°54' W 075°12'0 0.0
2017-May-22 13:30N 39°54' W 075°12'0 0.0
2017-May-22 13:00N 39°54' W 075°12'2 4.9
2017-May-22 12:30N 39°52' W 075°14'0 0.8
2017-May-22 12:00N 39°51' W 075°14'0 0.0
2017-May-22 11:30N 39°51' W 075°14'0 0.0
2017-May-22 11:00N 39°51' W 075°14'0 0.0
2017-May-22 10:30N 39°51' W 075°14'0 0.0
2017-May-22 10:00N 39°51' W 075°14'0 0.2
2017-May-22 09:30N 39°51' W 075°14'2 4.9
2017-May-22 09:00N 39°51' W 075°17'4 7.0
2017-May-22 08:30N 39°50' W 075°22'4 7.2
2017-May-22 08:00N 39°48' W 075°25'3 7.0
2017-May-22 07:30N 39°46' W 075°29'3 7.0
2017-May-22 07:00N 39°43' W 075°31'3 6.7
2017-May-22 06:30N 39°39' W 075°32'3 6.4
2017-May-22 06:00N 39°37' W 075°35'3 6.3
2017-May-22 05:30N 39°34' W 075°33'4 8.3
2017-May-22 05:00N 39°33' W 075°39'4 7.8
2017-May-22 04:30N 39°33' W 075°44'4 7.6
2017-May-22 04:00N 39°32' W 075°48'3 6.4
2017-May-22 03:30N 39°31' W 075°53'4 7.9
2017-May-22 03:00N 39°29' W 075°57'4 8.2
2017-May-22 02:28N 39°26' W 076°01'16 7.5
2017-May-22 00:22N 39°14' W 076°14'16 8.5
2017-May-21 22:31N 38°60' W 076°23'0 9.0
2017-May-21 22:30N 38°60' W 076°23'2 4.7
2017-May-21 22:00N 38°58' W 076°24'2 4.0
2017-May-21 21:26N 38°55' W 076°24'4 8.8
2017-May-21 20:58N 38°51' W 076°25'51 8.1
2017-May-21 14:43N 38°00' W 076°21'2 8.0
2017-May-21 14:30N 38°02' W 076°23'2 0.5
2017-May-21 10:44N 38°03' W 076°25'0 0.1
2017-May-21 10:30N 38°03' W 076°25'0 0.0
2017-May-21 09:26N 38°03' W 076°25'0 0.0
2017-May-21 08:52N 38°03' W 076°25'0 0.0
2017-May-21 08:30N 38°03' W 076°25'0 0.0
2017-May-21 07:36N 38°03' W 076°25'0 0.4
2017-May-21 07:27N 38°03' W 076°25'0 0.0
2017-May-21 06:53N 38°03' W 076°25'0 0.0
2017-May-21 06:26N 38°03' W 076°25'0 0.0
2017-May-21 05:21N 38°03' W 076°25'0 0.0
2017-May-21 04:01N 38°03' W 076°25'0 0.0
2017-May-21 02:55N 38°03' W 076°25'0 0.0
2017-May-21 00:01N 38°03' W 076°25'0 0.0
2017-May-20 22:52N 38°03' W 076°25'0 0.0
2017-May-20 21:37N 38°03' W 076°25'0 0.0
2017-May-20 20:38N 38°03' W 076°25'0 0.0
2017-May-20 20:21N 38°03' W 076°25'0 0.0
2017-May-20 19:57N 38°03' W 076°25'0 0.0
2017-May-20 19:27N 38°03' W 076°25'0 0.0
2017-May-20 19:00N 38°03' W 076°25'0 0.0
2017-May-20 18:26N 38°03' W 076°25'0 0.0
2017-May-20 17:58N 38°03' W 076°25'0 0.0
2017-May-20 17:26N 38°03' W 076°25'0 0.0
2017-May-20 16:59N 38°03' W 076°25'0 0.0
2017-May-20 16:30N 38°03' W 076°25'0 0.0
2017-May-20 15:58N 38°03' W 076°25'0 0.0
2017-May-20 15:29N 38°03' W 076°25'0 0.1
2017-May-20 14:58N 38°03' W 076°25'3 5.5
2017-May-20 14:28N 38°05' W 076°27'7 0.3
2017-May-19 16:38N 38°09' W 076°34'2 7.6
2017-May-19 16:26N 38°08' W 076°32'3 7.7
2017-May-19 16:00N 38°05' W 076°29'4 7.7
2017-May-19 15:30N 38°03' W 076°25'4 7.5
2017-May-19 14:59N 38°01' W 076°22'  
Track history (hours):
 
Tides and Currents Weather Stations Pressure Air Temp Water Temp Dewpoint Dewpoint Depression Visibility Wind Speed Wind Dir Waves Ship Positions

RoSS Sea

Owner: Kirby Inland Marine, LP, Houston, TX. More information available from US FCC via Universal Licensing System and Coast Guard Vessel Documentation Center.

Last reported at 2017-May-23 20:29 UTC. Time now 2017-May-23 20:51 UTC.
Position N 39°42' W 073°59'.

Length 30 m; draft 5 m.

Type: Towing. MMSI: 367334360.

Date/timePositionNaut miles runAvg speedWind from/ knotsBaromVisibWave heightAir tempDewpointWater temp
2017-May-23 20:29N 39°42' W 073°59'4 6.9
2017-May-23 19:58N 39°39' W 074°02'6 6.9
2017-May-23 19:10N 39°34' W 074°04'2 6.6
2017-May-23 18:53N 39°32' W 074°05'9 6.8
2017-May-23 17:36N 39°25' W 074°12'40 6.5
2017-May-23 11:26N 38°55' W 074°46'7 6.4
2017-May-23 10:17N 38°49' W 074°52'3 5.9
2017-May-23 09:49N 38°48' W 074°55'2 5.4
2017-May-23 09:30N 38°48' W 074°58'3 5.0
2017-May-23 08:54N 38°49' W 075°01'13 5.5
2017-May-23 06:37N 38°60' W 075°09'1 3.2
2017-May-23 06:20N 39°01' W 075°10'9 6.3
2017-May-23 04:56N 39°09' W 075°14'4 9.9
2017-May-23 04:30N 39°12' W 075°17'5 9.9
2017-May-23 04:00N 39°16' W 075°21'5 9.9
2017-May-23 03:30N 39°20' W 075°25'5 9.2
2017-May-23 03:00N 39°23' W 075°29'4 8.4
2017-May-23 02:30N 39°27' W 075°33'3 6.9
2017-May-23 02:00N 39°30' W 075°34'3 5.6
2017-May-23 01:30N 39°33' W 075°33'3 6.3
2017-May-23 01:00N 39°36' W 075°34'3 5.4
2017-May-23 00:30N 39°38' W 075°34'3 5.8
2017-May-23 00:01N 39°41' W 075°31'3 5.7
2017-May-22 23:30N 39°43' W 075°30'3 6.2
2017-May-22 23:01N 39°46' W 075°28'3 6.8
2017-May-22 22:31N 39°48' W 075°25'4 7.9
2017-May-22 22:00N 39°51' W 075°21'4 9.0
2017-May-22 21:30N 39°51' W 075°15'1 2.0
2017-May-22 21:01N 39°51' W 075°14'3 5.6
2017-May-22 20:30N 39°54' W 075°12'0 0.1
2017-May-22 20:01N 39°54' W 075°12'0 0.0
2017-May-22 19:30N 39°54' W 075°12'0 0.0
2017-May-22 19:00N 39°54' W 075°12'0 0.0
2017-May-22 18:30N 39°54' W 075°12'0 0.0
2017-May-22 18:00N 39°54' W 075°12'0 0.0
2017-May-22 17:30N 39°54' W 075°12'0 0.1
2017-May-22 17:00N 39°54' W 075°12'0 0.0
2017-May-22 16:30N 39°54' W 075°12'0 0.0
2017-May-22 16:00N 39°54' W 075°12'0 0.0
2017-May-22 15:30N 39°54' W 075°12'0 0.0
2017-May-22 15:00N 39°54' W 075°12'0 0.0
2017-May-22 14:00N 39°54' W 075°12'0 0.0
2017-May-22 13:30N 39°54' W 075°12'0 0.0
2017-May-22 13:00N 39°54' W 075°12'2 4.9
2017-May-22 12:30N 39°52' W 075°14'0 0.8
2017-May-22 12:00N 39°51' W 075°14'0 0.0
2017-May-22 11:30N 39°51' W 075°14'0 0.0
2017-May-22 11:00N 39°51' W 075°14'0 0.0
2017-May-22 10:30N 39°51' W 075°14'0 0.0
2017-May-22 10:00N 39°51' W 075°14'0 0.2
2017-May-22 09:30N 39°51' W 075°14'2 4.9
2017-May-22 09:00N 39°51' W 075°17'4 7.0
2017-May-22 08:30N 39°50' W 075°22'4 7.2
2017-May-22 08:00N 39°48' W 075°25'3 7.0
2017-May-22 07:30N 39°46' W 075°29'3 7.0
2017-May-22 07:00N 39°43' W 075°31'3 6.7
2017-May-22 06:30N 39°39' W 075°32'3 6.4
2017-May-22 06:00N 39°37' W 075°35'3 6.3
2017-May-22 05:30N 39°34' W 075°33'4 8.3
2017-May-22 05:00N 39°33' W 075°39'4 7.8
2017-May-22 04:30N 39°33' W 075°44'4 7.6
2017-May-22 04:00N 39°32' W 075°48'3 6.4
2017-May-22 03:30N 39°31' W 075°53'4 7.9
2017-May-22 03:00N 39°29' W 075°57'4 8.2
2017-May-22 02:28N 39°26' W 076°01'16 7.5
2017-May-22 00:22N 39°14' W 076°14'16 8.5
2017-May-21 22:31N 38°60' W 076°23'0 9.0
2017-May-21 22:30N 38°60' W 076°23'2 4.7
2017-May-21 22:00N 38°58' W 076°24'2 4.0
2017-May-21 21:26N 38°55' W 076°24'4 8.8
2017-May-21 20:58N 38°51' W 076°25'51 8.1
2017-May-21 14:43N 38°00' W 076°21'2 8.0
2017-May-21 14:30N 38°02' W 076°23'2 0.5
2017-May-21 10:44N 38°03' W 076°25'0 0.1
2017-May-21 10:30N 38°03' W 076°25'0 0.0
2017-May-21 09:26N 38°03' W 076°25'0 0.0
2017-May-21 08:52N 38°03' W 076°25'0 0.0
2017-May-21 08:30N 38°03' W 076°25'0 0.0
2017-May-21 07:36N 38°03' W 076°25'0 0.4
2017-May-21 07:27N 38°03' W 076°25'0 0.0
2017-May-21 06:53N 38°03' W 076°25'0 0.0
2017-May-21 06:26N 38°03' W 076°25'0 0.0
2017-May-21 05:21N 38°03' W 076°25'0 0.0
2017-May-21 04:01N 38°03' W 076°25'0 0.0
2017-May-21 02:55N 38°03' W 076°25'0 0.0
2017-May-21 00:01N 38°03' W 076°25'0 0.0
2017-May-20 22:52N 38°03' W 076°25'0 0.0
2017-May-20 21:37N 38°03' W 076°25'0 0.0
2017-May-20 20:38N 38°03' W 076°25'0 0.0
2017-May-20 20:21N 38°03' W 076°25'0 0.0
2017-May-20 19:57N 38°03' W 076°25'0 0.0
2017-May-20 19:27N 38°03' W 076°25'0 0.0
2017-May-20 19:00N 38°03' W 076°25'0 0.0
2017-May-20 18:26N 38°03' W 076°25'0 0.0
2017-May-20 17:58N 38°03' W 076°25'0 0.0
2017-May-20 17:26N 38°03' W 076°25'0 0.0
2017-May-20 16:59N 38°03' W 076°25'0 0.0
2017-May-20 16:30N 38°03' W 076°25'0 0.0
2017-May-20 15:58N 38°03' W 076°25'0 0.0
2017-May-20 15:29N 38°03' W 076°25'0 0.1
2017-May-20 14:58N 38°03' W 076°25'3 5.5
2017-May-20 14:28N 38°05' W 076°27'7 0.3
2017-May-19 16:38N 38°09' W 076°34'2 7.6
2017-May-19 16:26N 38°08' W 076°32'3 7.7
2017-May-19 16:00N 38°05' W 076°29'4 7.7
2017-May-19 15:30N 38°03' W 076°25'4 7.5
2017-May-19 14:59N 38°01' W 076°22'  

Dump ship's entire track history